Tanger, Maroc

09:20 WEST le 23 septembre 2014 (GMT +0100)
Ibn Batouta | Change Station
CLOSE
Current Station
Aéroport
Location: Tanger,
Altitude: 69 ft
Stations météo à proximité

Alt. 69 ft 35.73 °N, 5.91 °W | Updated 20 minutes ago

Mostly Cloudy
Nuageux
68 ° F
Paraît 68 ° F
N
10
Vent Variable Vent de SSO

Aujourd'hui
Haut(e) -- | Bas -- ° F
--% Risque de précip.
Hier
Haut(e) -- | Bas -- ° F
Precip. -- pouce
7:12 AM 7:19 PM
Lune descendante, 1% visible
Pression 30.01 pouce
Visibilité 6.2 Miles terrestres
Nuages Nuageux 1600 ft
Point de rosée 61 ° F
Humidité 78%
Précipitations 0.00 pouce
Profondeur de la couche neigeuse Non disponible.
UV 1 sur 12
Pollen Non disponible.
Qualité de l'air Non disponible.
Flu Activity Non disponible.
METAR GMTT 230800Z 20009KT 160V220 9999 BKN016TCU 20/16 Q1016 NOSIG

More Conditions Fewer Conditions

Pression 30.01 pouce
Visibilité 6.2 Miles terrestres
Nuages Nuageux 1600 ft
Point de rosée 61 ° F
Humidité 78%
Précipitations 0.00 pouce
Profondeur de la couche neigeuse Non disponible.
UV 1 sur 12
Pollen Non disponible.
Qualité de l'air Non disponible.
Flu Activity Non disponible.
METAR GMTT 230800Z 20009KT 160V220 9999 BKN016TCU 20/16 Q1016 NOSIG

More Conditions Fewer Conditions

10-Day Weather Forecast

Almanac

Astronomie

Sep. 23, 2014 Lever Coucher
Temps réel 07:12 WEST 19:19 WEST
Crépuscule civil 06:46 WEST 19:44 WEST
Crépuscule nautique 06:16 WEST 20:14 WEST
Crépuscule astronomique 05:46 WEST 20:44 WEST
Lune 06:24 WEST 18:51 WEST
Durée de lumière visible 12h 58m
Longueur du jour
12h 07m
Tomorrow will be 2m 15s shorter.
Lune descendante, 1% of the Moon is Illuminated
Aujourd'hui
Lune descendante
Sep 24
Nouveau
Oct 1
Premier quartier
Oct 8
Pleine lune
Oct 15
Dernier quartier

Les extrêmes de température d’hier

Country Highs Country Lows

Community

WunderPhotos

Upload Photos

1,755,632 Photos téléchargées !

Nearby

Qualité de l'air

Not available.

Épaisseur de neige

Not available.

Activité sismique

Ville Distance Mag. Time & Date
No recent earthquake activity has been reported nearby.
Minimum magnitude displayed is 2.5.

Températures des eaux côtières

Lieu Température
Aucun rapport de station

Stations météo à proximité